Mercini Lady — A8DL4 — position and weather

sailwx.info

Track history (hours):
 
Tides and Currents Weather Stations Pressure Air Temp Water Temp Dewpoint Dewpoint Depression Visibility Wind Speed Wind Dir Waves Ship Positions

Mercini Lady

Last reported at 2015-Mar-30 13:33 UTC. Time now 2015-Mar-30 14:14 UTC.
Position N 38°39' W 009°56'.

Length 182 m; draft 11.6 m.

Type: Tanker. MMSI: 636012102.

Date/timePositionNaut miles runAvg speedWind from/ knotsBaromVisibWave heightAir tempDewpointWater temp
2015-Mar-30 13:33N 38°39' W 009°56'10 9.3
2015-Mar-30 12:31N 38°30' W 009°53'9 9.2
2015-Mar-30 11:32N 38°21' W 009°50'9 9.1
2015-Mar-30 10:33N 38°12' W 009°48'9 9.1
2015-Mar-30 09:33N 38°03' W 009°45'9 9.4
2015-Mar-30 08:33N 37°54' W 009°42'9 9.3
2015-Mar-30 07:32N 37°45' W 009°40'9 9.5
2015-Mar-30 06:33N 37°36' W 009°37'9 9.0
2015-Mar-30 05:32N 37°27' W 009°34'9 8.9
2015-Mar-30 04:32N 37°18' W 009°32'9 8.9
2015-Mar-30 03:30N 37°09' W 009°29'8 8.7
2015-Mar-30 02:33N 37°01' W 009°27'9 9.2
2015-Mar-30 01:33N 36°52' W 009°24'9 9.3
2015-Mar-30 00:34N 36°45' W 009°17'9 9.0
2015-Mar-29 23:33N 36°40' W 009°08'9 9.3
2015-Mar-29 22:33N 36°37' W 008°57'9 9.1
2015-Mar-29 21:32N 36°34' W 008°46'9 9.3
2015-Mar-29 20:32N 36°32' W 008°35'10 9.4
2015-Mar-29 19:25N 36°29' W 008°22'18 9.6
2015-Mar-29 17:32N 36°23' W 008°01'12010.1
2015-Mar-29 05:33N 35°58' W 005°35'8 7.9
2015-Mar-29 04:30N 36°01' W 005°26'6 6.5
2015-Mar-29 03:33N 36°06' W 005°22'1 0.5
2015-Mar-29 02:31N 36°07' W 005°22'0 0.1
2015-Mar-29 01:28N 36°07' W 005°22'0 0.1
2015-Mar-29 00:32N 36°07' W 005°22'0 0.1
2015-Mar-28 23:34N 36°07' W 005°22'0 0.1
2015-Mar-28 22:18N 36°07' W 005°22'0 0.0
2015-Mar-28 21:28N 36°07' W 005°22'0 0.0
2015-Mar-28 20:31N 36°07' W 005°22'0 0.1
2015-Mar-28 19:29N 36°07' W 005°22'0 0.1
2015-Mar-28 18:33N 36°07' W 005°22'0 0.3
2015-Mar-28 17:34N 36°07' W 005°22'6 5.9
2015-Mar-28 16:33N 36°05' W 005°15'20410.1
2015-Mar-27 20:23N 36°36' W 001°04'10 9.5
2015-Mar-27 19:19N 36°38' W 000°52'7 9.4
2015-Mar-27 18:33N 36°39' W 000°43'9 9.4
2015-Mar-27 17:33N 36°41' W 000°31'10 9.3
2015-Mar-27 16:27N 36°43' W 000°19'9 9.6
2015-Mar-27 15:33N 36°45' W 000°08'1010.2
2015-Mar-27 14:32N 36°47' E 000°05'  
2015-Mar-24 15:05N 36°35' E 013°41'610.8
2015-Mar-24 14:34N 36°32' E 013°47'1210.8
2015-Mar-24 13:28N 36°28' E 014°01'  
Track history (hours):
 
Tides and Currents Weather Stations Pressure Air Temp Water Temp Dewpoint Dewpoint Depression Visibility Wind Speed Wind Dir Waves Ship Positions

Mercini Lady

Last reported at 2015-Mar-30 13:33 UTC. Time now 2015-Mar-30 14:14 UTC.
Position N 38°39' W 009°56'.

Length 182 m; draft 11.6 m.

Type: Tanker. MMSI: 636012102.

Date/timePositionNaut miles runAvg speedWind from/ knotsBaromVisibWave heightAir tempDewpointWater temp
2015-Mar-30 13:33N 38°39' W 009°56'10 9.3
2015-Mar-30 12:31N 38°30' W 009°53'9 9.2
2015-Mar-30 11:32N 38°21' W 009°50'9 9.1
2015-Mar-30 10:33N 38°12' W 009°48'9 9.1
2015-Mar-30 09:33N 38°03' W 009°45'9 9.4
2015-Mar-30 08:33N 37°54' W 009°42'9 9.3
2015-Mar-30 07:32N 37°45' W 009°40'9 9.5
2015-Mar-30 06:33N 37°36' W 009°37'9 9.0
2015-Mar-30 05:32N 37°27' W 009°34'9 8.9
2015-Mar-30 04:32N 37°18' W 009°32'9 8.9
2015-Mar-30 03:30N 37°09' W 009°29'8 8.7
2015-Mar-30 02:33N 37°01' W 009°27'9 9.2
2015-Mar-30 01:33N 36°52' W 009°24'9 9.3
2015-Mar-30 00:34N 36°45' W 009°17'9 9.0
2015-Mar-29 23:33N 36°40' W 009°08'9 9.3
2015-Mar-29 22:33N 36°37' W 008°57'9 9.1
2015-Mar-29 21:32N 36°34' W 008°46'9 9.3
2015-Mar-29 20:32N 36°32' W 008°35'10 9.4
2015-Mar-29 19:25N 36°29' W 008°22'18 9.6
2015-Mar-29 17:32N 36°23' W 008°01'12010.1
2015-Mar-29 05:33N 35°58' W 005°35'8 7.9
2015-Mar-29 04:30N 36°01' W 005°26'6 6.5
2015-Mar-29 03:33N 36°06' W 005°22'1 0.5
2015-Mar-29 02:31N 36°07' W 005°22'0 0.1
2015-Mar-29 01:28N 36°07' W 005°22'0 0.1
2015-Mar-29 00:32N 36°07' W 005°22'0 0.1
2015-Mar-28 23:34N 36°07' W 005°22'0 0.1
2015-Mar-28 22:18N 36°07' W 005°22'0 0.0
2015-Mar-28 21:28N 36°07' W 005°22'0 0.0
2015-Mar-28 20:31N 36°07' W 005°22'0 0.1
2015-Mar-28 19:29N 36°07' W 005°22'0 0.1
2015-Mar-28 18:33N 36°07' W 005°22'0 0.3
2015-Mar-28 17:34N 36°07' W 005°22'6 5.9
2015-Mar-28 16:33N 36°05' W 005°15'20410.1
2015-Mar-27 20:23N 36°36' W 001°04'10 9.5
2015-Mar-27 19:19N 36°38' W 000°52'7 9.4
2015-Mar-27 18:33N 36°39' W 000°43'9 9.4
2015-Mar-27 17:33N 36°41' W 000°31'10 9.3
2015-Mar-27 16:27N 36°43' W 000°19'9 9.6
2015-Mar-27 15:33N 36°45' W 000°08'1010.2
2015-Mar-27 14:32N 36°47' E 000°05'  
2015-Mar-24 15:05N 36°35' E 013°41'610.8
2015-Mar-24 14:34N 36°32' E 013°47'1210.8
2015-Mar-24 13:28N 36°28' E 014°01'  

Dump ship's entire track history